Time;durP1;ratioP1;P1;durP2;ratioP2;P2;SDS_P1;SDS_P2;PMS_P1;PMS_P2;Temp;Humidity;BMP_temperature;BMP_pressure;BME280_temperature;BME280_humidity;BME280_pressure;Samples;Min_cycle;Max_cycle;Signal;HPM_P1;HPM_P2
2021/12/27 00:00:18;;;;;;;;;;;;;;;4.61;78.45;98744.81;5095428;28;19966;-82
2021/12/27 00:02:45;;;;;;;;;;;;;;;4.59;78.48;98733.66;5095095;28;19916;-83
2021/12/27 00:05:11;;;;;;;;;;;;;;;4.56;78.39;98742.06;5094924;28;19923;-80
2021/12/27 00:07:36;;;;;;;;;;;;;;;4.54;78.42;98749.47;5094863;28;19919;-80
2021/12/27 00:10:02;;;;;;;;;;;;;;;4.53;78.65;98747.06;5094359;28;19919;-82
2021/12/27 00:12:28;;;;;;;;;;;;;;;4.46;78.77;98747.22;5094944;28;19976;-82
2021/12/27 00:14:53;;;;;;;;;;;;;;;4.42;78.97;98746.09;5094659;28;20014;-84
2021/12/27 00:17:19;;;;;;;;;;;;;;;4.39;79.10;98743.94;5095025;28;19971;-83
2021/12/27 00:19:44;;;;;;;;;;;;;;;4.36;79.41;98733.84;5094403;28;19926;-75
2021/12/27 00:22:09;;;;;;;;;;;;;;;4.36;79.81;98741.78;5094361;28;19920;-76
2021/12/27 00:24:34;;;;;;;;;;;;;;;4.35;80.07;98745.50;5112772;28;19920;-76
2021/12/27 00:27:00;;;;;;;;;;;;;;;4.29;80.29;98734.81;5094582;28;19959;-75
2021/12/27 00:29:25;;;;;;;;;;;;;;;4.28;80.40;98737.69;5094244;28;20015;-76
2021/12/27 00:31:50;;;;;;;;;;;;;;;4.25;80.58;98735.56;5094553;28;19916;-75
2021/12/27 00:34:16;;;;;;;;;;;;;;;4.26;80.52;98742.41;5094690;28;19923;-75
2021/12/27 00:36:41;;;;;;;;;;;;;;;4.27;80.63;98741.38;5112244;28;19994;-75
2021/12/27 00:39:06;;;;;;;;;;;;;;;4.29;80.58;98739.31;5112655;28;19920;-76
2021/12/27 00:41:32;;;;;;;;;;;;;;;4.31;80.75;98753.91;5094581;28;19964;-75
2021/12/27 00:43:57;;;;;;;;;;;;;;;4.33;80.76;98757.13;5094325;28;19988;-75
2021/12/27 00:46:22;;;;;;;;;;;;;;;4.36;81.03;98761.13;5094501;28;19915;-76
2021/12/27 00:48:48;;;;;;;;;;;;;;;4.37;80.41;98762.72;5093994;28;19923;-76
2021/12/27 00:51:13;;;;;;;;;;;;;;;4.35;80.29;98758.72;5093957;28;20014;-78
2021/12/27 00:53:39;;;;;;;;;;;;;;;4.35;80.40;98766.66;5093843;28;19919;-79
2021/12/27 00:56:04;;;;;;;;;;;;;;;4.35;79.96;98764.03;5094335;28;19916;-79
2021/12/27 00:58:30;;;;;;;;;;;;;;;4.35;80.39;98761.38;5093799;28;19928;-79
2021/12/27 01:00:55;;;;;;;;;;;;;;;4.36;80.38;98763.78;5110951;28;19915;-76
2021/12/27 01:03:20;;;;;;;;;;;;;;;4.38;80.34;98766.16;5093854;28;20371;-78
2021/12/27 01:05:46;;;;;;;;;;;;;;;4.39;80.50;98765.13;5093431;28;20027;-78
2021/12/27 01:08:12;;;;;;;;;;;;;;;4.39;80.40;98768.56;5094205;28;19916;-78
2021/12/27 01:13:37;;;;;;;;;;;;;;;4.42;80.27;98756.69;5112319;28;19920;-81
2021/12/27 01:16:11;;;;;;;;;;;;;;;4.44;80.48;98752.78;5093915;28;20015;-76
2021/12/27 01:18:38;;;;;;;;;;;;;;;4.45;80.38;98749.06;5112322;28;19927;-76
2021/12/27 01:21:04;;;;;;;;;;;;;;;4.46;80.29;98750.66;5093933;28;19969;-75
2021/12/27 01:23:29;;;;;;;;;;;;;;;4.48;80.26;98743.28;5111583;28;19923;-76
2021/12/27 01:25:54;;;;;;;;;;;;;;;4.47;80.46;98738.25;5093636;28;20006;-74
2021/12/27 01:28:20;;;;;;;;;;;;;;;4.47;80.67;98727.66;5093844;28;19958;-77
2021/12/27 01:30:48;;;;;;;;;;;;;;;4.48;80.71;98727.41;5093494;28;19958;-74
2021/12/27 01:33:14;;;;;;;;;;;;;;;4.48;80.96;98708.88;5093570;28;20402;-78
2021/12/27 01:35:40;;;;;;;;;;;;;;;4.43;81.35;98700.88;5092087;28;19927;-79
2021/12/27 01:38:06;;;;;;;;;;;;;;;4.41;81.26;98704.81;5093702;28;19916;-82
2021/12/27 01:40:32;;;;;;;;;;;;;;;4.38;81.38;98686.75;5093897;28;20443;-87
2021/12/27 01:43:02;;;;;;;;;;;;;;;4.35;81.66;98698.63;5093586;28;19928;-81
2021/12/27 01:45:28;;;;;;;;;;;;;;;4.35;82.08;98697.84;5093550;28;19924;-76
2021/12/27 01:47:53;;;;;;;;;;;;;;;4.33;82.80;98690.94;5093366;28;19923;-83
2021/12/27 01:50:18;;;;;;;;;;;;;;;4.28;83.05;98669.66;5093046;28;19919;-83
2021/12/27 01:52:43;;;;;;;;;;;;;;;4.24;83.34;98692.38;5093243;28;19926;-85
2021/12/27 01:55:09;;;;;;;;;;;;;;;4.21;84.31;98700.81;5093192;28;19916;-81
2021/12/27 01:57:34;;;;;;;;;;;;;;;4.21;84.52;98681.47;5093636;28;19919;-79
2021/12/27 02:00:00;;;;;;;;;;;;;;;4.21;84.58;98684.94;5093254;28;19923;-77
2021/12/27 02:02:25;;;;;;;;;;;;;;;4.21;84.37;98687.59;5093494;28;19920;-84
2021/12/27 02:04:51;;;;;;;;;;;;;;;4.24;84.48;98686.28;5093238;28;20422;-85
2021/12/27 02:07:16;;;;;;;;;;;;;;;4.25;84.67;98683.41;5093062;28;19919;-78
2021/12/27 02:09:52;;;;;;;;;;;;;;;4.28;84.65;98685.53;5092633;28;20007;-80
2021/12/27 02:12:18;;;;;;;;;;;;;;;4.31;85.01;98681.63;5093490;28;19927;-81
2021/12/27 02:14:43;;;;;;;;;;;;;;;4.32;84.97;98680.56;5092906;28;19920;-79
2021/12/27 02:17:08;;;;;;;;;;;;;;;4.34;85.58;98691.72;5093334;28;19923;-79
2021/12/27 02:19:35;;;;;;;;;;;;;;;4.38;84.89;98686.75;5093334;28;19926;-81
2021/12/27 02:22:00;;;;;;;;;;;;;;;4.42;84.68;98701.91;5093055;28;19927;-86
2021/12/27 02:24:26;;;;;;;;;;;;;;;4.48;84.45;98710.72;5092748;28;19920;-78
2021/12/27 02:26:51;;;;;;;;;;;;;;;4.54;84.55;98701.81;5092928;28;19916;-77
2021/12/27 02:29:16;;;;;;;;;;;;;;;4.57;84.85;98693.34;5093285;28;20356;-77
2021/12/27 02:31:42;;;;;;;;;;;;;;;4.59;84.68;98695.75;5092769;28;20314;-76
2021/12/27 02:34:10;;;;;;;;;;;;;;;4.59;84.75;98687.81;5093127;28;19920;-76
2021/12/27 02:36:35;;;;;;;;;;;;;;;4.60;85.08;98698.19;5111097;28;19920;-76
2021/12/27 02:39:00;;;;;;;;;;;;;;;4.61;85.00;98686.53;5092512;28;19923;-76
2021/12/27 02:41:26;;;;;;;;;;;;;;;4.62;85.31;98688.13;5093420;28;19923;-76
2021/12/27 02:43:51;;;;;;;;;;;;;;;4.61;84.53;98673.28;5093217;28;19916;-77
2021/12/27 02:46:16;;;;;;;;;;;;;;;4.59;84.67;98674.56;5094515;28;19932;-82
2021/12/27 02:48:46;;;;;;;;;;;;;;;4.57;85.14;98672.16;5096634;28;20389;-81
2021/12/27 02:51:12;;;;;;;;;;;;;;;4.60;84.64;98681.47;5096661;28;19923;-82
2021/12/27 02:53:37;;;;;;;;;;;;;;;4.59;84.48;98677.22;5096091;28;20391;-85
2021/12/27 02:56:05;;;;;;;;;;;;;;;4.60;85.15;98684.13;5096511;28;19916;-86
2021/12/27 02:58:30;;;;;;;;;;;;;;;4.62;84.85;98685.47;5096661;28;20097;-85
2021/12/27 03:01:00;;;;;;;;;;;;;;;4.64;84.62;98683.38;5096186;28;20526;-84
2021/12/27 03:03:25;;;;;;;;;;;;;;;4.67;85.18;98678.66;5096508;28;19915;-78
2021/12/27 03:05:51;;;;;;;;;;;;;;;4.69;85.43;98679.19;5096002;28;19939;-77
2021/12/27 03:08:17;;;;;;;;;;;;;;;4.72;85.39;98670.75;5096458;28;19924;-80
2021/12/27 03:10:44;;;;;;;;;;;;;;;4.76;85.17;98677.16;5095808;28;19924;-82
2021/12/27 03:13:14;;;;;;;;;;;;;;;4.79;84.64;98679.31;5096277;28;19915;-81
2021/12/27 03:15:39;;;;;;;;;;;;;;;4.81;85.18;98677.25;5095614;28;19927;-79
2021/12/27 03:18:05;;;;;;;;;;;;;;;4.84;84.89;98665.34;5096266;28;19919;-83
2021/12/27 03:20:30;;;;;;;;;;;;;;;4.80;84.27;98657.09;5096239;28;19938;-79
2021/12/27 03:22:55;;;;;;;;;;;;;;;4.74;84.58;98668.69;5095947;28;19915;-81
2021/12/27 03:25:23;;;;;;;;;;;;;;;4.74;85.60;98660.72;5095755;28;20287;-79
2021/12/27 03:27:48;;;;;;;;;;;;;;;4.74;85.43;98655.44;5095810;28;19927;-80
2021/12/27 03:30:18;;;;;;;;;;;;;;;4.73;85.25;98651.97;5095678;28;19920;-82
2021/12/27 03:32:44;;;;;;;;;;;;;;;4.72;85.58;98647.72;5095411;28;19942;-82
2021/12/27 03:35:13;;;;;;;;;;;;;;;4.73;85.86;98653.81;5095781;28;20378;-87
2021/12/27 03:37:40;;;;;;;;;;;;;;;4.73;85.65;98648.53;5095663;28;19920;-75
2021/12/27 03:40:07;;;;;;;;;;;;;;;4.76;85.90;98640.06;5113763;28;19920;-75
2021/12/27 03:42:32;;;;;;;;;;;;;;;4.78;86.04;98649.38;5095761;28;19916;-76
2021/12/27 03:44:57;;;;;;;;;;;;;;;4.79;86.37;98653.63;5095156;28;20900;-78
2021/12/27 03:47:23;;;;;;;;;;;;;;;4.81;86.16;98656.03;5095674;28;19916;-80
2021/12/27 03:49:48;;;;;;;;;;;;;;;4.81;85.92;98656.03;5095358;28;20084;-80
2021/12/27 03:52:13;;;;;;;;;;;;;;;4.83;85.99;98647.84;5095202;28;20444;-80
2021/12/27 03:54:39;;;;;;;;;;;;;;;4.86;85.61;98648.16;5094863;28;19945;-78
2021/12/27 03:57:04;;;;;;;;;;;;;;;4.86;85.79;98629.59;5094980;28;19919;-80
2021/12/27 03:59:48;;;;;;;;;;;;;;;4.90;85.52;98633.34;5095024;28;19919;-81
2021/12/27 04:02:14;;;;;;;;;;;;;;;4.92;85.26;98630.44;5095333;28;20011;-78
2021/12/27 04:04:40;;;;;;;;;;;;;;;4.94;85.73;98641.59;5095214;28;19953;-79
2021/12/27 04:07:07;;;;;;;;;;;;;;;4.94;85.84;98638.94;5094795;28;19926;-83
2021/12/27 04:09:33;;;;;;;;;;;;;;;4.94;85.63;98641.59;5094465;28;20019;-86
2021/12/27 04:11:58;;;;;;;;;;;;;;;4.92;86.25;98647.16;5094676;28;19970;-83
2021/12/27 04:14:25;;;;;;;;;;;;;;;4.93;85.47;98637.34;5095075;28;20018;-83
2021/12/27 04:16:51;;;;;;;;;;;;;;;4.92;85.58;98636.56;5094757;28;19984;-78
2021/12/27 04:19:16;;;;;;;;;;;;;;;4.89;85.47;98630.94;5095241;28;20378;-84
2021/12/27 04:21:41;;;;;;;;;;;;;;;4.87;86.16;98641.00;5094823;28;19916;-82
2021/12/27 04:24:07;;;;;;;;;;;;;;;4.84;86.55;98638.84;5094891;28;19927;-83
2021/12/27 04:26:32;;;;;;;;;;;;;;;4.83;86.83;98634.59;5109204;28;19927;-83
2021/12/27 04:28:57;;;;;;;;;;;;;;;4.79;87.41;98637.72;5099011;28;19931;-84
2021/12/27 04:31:23;;;;;;;;;;;;;;;4.79;87.13;98652.84;5095131;28;20002;-84
2021/12/27 04:33:48;;;;;;;;;;;;;;;4.78;87.44;98669.78;5094432;28;20293;-83
2021/12/27 04:36:13;;;;;;;;;;;;;;;4.75;87.81;98673.72;5094715;28;20374;-83
2021/12/27 04:38:42;;;;;;;;;;;;;;;4.75;88.10;98668.41;5094127;28;19927;-82
2021/12/27 04:41:08;;;;;;;;;;;;;;;4.77;87.64;98682.22;5094622;28;19916;-82
2021/12/27 04:43:33;;;;;;;;;;;;;;;4.77;87.93;98676.94;5094673;28;19927;-82
2021/12/27 04:45:58;;;;;;;;;;;;;;;4.79;87.76;98674.81;5094292;28;20419;-82
2021/12/27 04:48:25;;;;;;;;;;;;;;;4.75;87.71;98672.94;5094493;28;20340;-77
2021/12/27 04:50:50;;;;;;;;;;;;;;;4.75;87.82;98673.72;5094346;28;19981;-80
2021/12/27 04:53:16;;;;;;;;;;;;;;;4.75;87.93;98664.97;5094445;28;20381;-78
2021/12/27 04:55:41;;;;;;;;;;;;;;;4.74;87.50;98676.63;5093488;28;19984;-76
2021/12/27 04:58:10;;;;;;;;;;;;;;;4.73;87.42;98673.16;5093785;28;20416;-77
2021/12/27 05:00:36;;;;;;;;;;;;;;;4.74;87.48;98668.69;5094018;28;19912;-76
2021/12/27 05:03:02;;;;;;;;;;;;;;;4.73;86.95;98661.78;5093746;28;19912;-77
2021/12/27 05:05:27;;;;;;;;;;;;;;;4.67;86.68;98676.00;5093917;28;19915;-77
2021/12/27 05:07:53;;;;;;;;;;;;;;;4.65;87.18;98679.69;5093742;28;19926;-77
2021/12/27 05:10:18;;;;;;;;;;;;;;;4.61;86.86;98681.25;5093668;28;20394;-79
2021/12/27 05:12:44;;;;;;;;;;;;;;;4.60;87.34;98681.47;5093474;28;20430;-79
2021/12/27 05:15:10;;;;;;;;;;;;;;;4.55;87.03;98684.06;5094048;28;19916;-79
2021/12/27 05:17:35;;;;;;;;;;;;;;;4.52;87.08;98693.28;5094069;28;20011;-77
2021/12/27 05:20:05;;;;;;;;;;;;;;;4.50;86.99;98690.09;5111993;28;19927;-87
2021/12/27 05:22:31;;;;;;;;;;;;;;;4.47;87.35;98688.72;5093977;28;19919;-86
2021/12/27 05:24:56;;;;;;;;;;;;;;;4.48;87.20;98697.50;5095512;28;19912;-90
2021/12/27 05:27:22;;;;;;;;;;;;;;;4.47;87.46;98687.94;5095436;28;20002;-87
2021/12/27 05:29:47;;;;;;;;;;;;;;;4.45;87.15;98676.78;5091513;28;20010;-81
2021/12/27 05:32:12;;;;;;;;;;;;;;;4.44;87.00;98673.34;5110135;28;20018;-85
2021/12/27 05:34:38;;;;;;;;;;;;;;;4.42;86.86;98683.38;5096285;28;19923;-92
2021/12/27 05:37:04;;;;;;;;;;;;;;;4.42;86.65;98685.19;5097479;28;19922;-84
2021/12/27 05:39:29;;;;;;;;;;;;;;;4.40;86.70;98690.75;5093110;28;19920;-83
2021/12/27 05:41:55;;;;;;;;;;;;;;;4.40;86.56;98689.97;5093422;28;19916;-84
2021/12/27 05:44:20;;;;;;;;;;;;;;;4.41;86.45;98688.91;5093633;28;19920;-82
2021/12/27 05:46:46;;;;;;;;;;;;;;;4.39;86.19;98689.13;5092531;28;19920;-81
2021/12/27 05:49:11;;;;;;;;;;;;;;;4.37;85.81;98683.31;5093520;28;19927;-83
2021/12/27 05:51:36;;;;;;;;;;;;;;;4.35;86.10;98689.91;5093707;28;19944;-83
2021/12/27 05:54:05;;;;;;;;;;;;;;;4.31;86.00;98686.94;5093413;28;19923;-82
2021/12/27 05:56:30;;;;;;;;;;;;;;;4.28;85.99;98685.53;5093229;28;19927;-80
2021/12/27 05:58:55;;;;;;;;;;;;;;;4.26;86.26;98692.94;5093064;28;19916;-79
2021/12/27 06:01:20;;;;;;;;;;;;;;;4.23;86.25;98688.13;5093194;28;19916;-82
2021/12/27 06:03:46;;;;;;;;;;;;;;;4.19;86.40;98681.72;5092566;28;20419;-81
2021/12/27 06:06:11;;;;;;;;;;;;;;;4.18;86.56;98682.75;5092504;28;19978;-80
2021/12/27 06:08:36;;;;;;;;;;;;;;;4.18;86.70;98690.72;5091665;28;19958;-81
2021/12/27 06:11:02;;;;;;;;;;;;;;;4.18;86.69;98698.66;5092494;28;19955;-81
2021/12/27 06:13:27;;;;;;;;;;;;;;;4.17;86.75;98704.97;5092020;28;20018;-84
2021/12/27 06:15:53;;;;;;;;;;;;;;;4.17;86.83;98699.69;5110859;28;19919;-86
2021/12/27 06:18:18;;;;;;;;;;;;;;;4.19;86.68;98696.78;5092907;28;19923;-79
2021/12/27 06:20:43;;;;;;;;;;;;;;;4.21;86.73;98695.53;5111717;28;19916;-79
2021/12/27 06:23:09;;;;;;;;;;;;;;;4.25;86.79;98699.28;5118059;28;20286;-86
2021/12/27 06:25:34;;;;;;;;;;;;;;;4.27;86.61;98699.03;5096712;28;20311;-80
2021/12/27 06:27:59;;;;;;;;;;;;;;;4.27;86.51;98704.31;5096338;28;19915;-84
2021/12/27 06:30:24;;;;;;;;;;;;;;;4.26;86.75;98690.31;5095551;28;19920;-83
2021/12/27 06:32:50;;;;;;;;;;;;;;;4.27;86.27;98697.19;5095973;28;19923;-82
2021/12/27 06:35:16;;;;;;;;;;;;;;;4.28;86.41;98698.00;5096720;28;19915;-82
2021/12/27 06:37:42;;;;;;;;;;;;;;;4.31;86.51;98695.66;5095826;28;19919;-78
2021/12/27 06:40:08;;;;;;;;;;;;;;;4.33;86.58;98709.47;5096228;28;20064;-78
2021/12/27 06:42:34;;;;;;;;;;;;;;;4.38;86.57;98711.38;5095854;28;20284;-78
2021/12/27 06:44:59;;;;;;;;;;;;;;;4.44;86.54;98709.59;5114570;28;19922;-79
2021/12/27 06:47:26;;;;;;;;;;;;;;;4.48;86.47;98708.88;5095563;28;20390;-80
2021/12/27 06:49:51;;;;;;;;;;;;;;;4.53;86.25;98702.84;5095846;28;20022;-78
2021/12/27 06:52:16;;;;;;;;;;;;;;;4.57;86.04;98701.31;5095948;28;20019;-76
2021/12/27 06:54:42;;;;;;;;;;;;;;;4.62;85.64;98697.94;5095729;28;19924;-77
2021/12/27 06:57:07;;;;;;;;;;;;;;;4.64;85.56;98693.97;5095762;28;19924;-77
2021/12/27 06:59:32;;;;;;;;;;;;;;;4.65;85.10;98685.00;5095815;28;19916;-79
2021/12/27 07:01:58;;;;;;;;;;;;;;;4.61;85.56;98689.19;5095033;28;19976;-82
2021/12/27 07:04:23;;;;;;;;;;;;;;;4.60;85.94;98686.75;5096085;28;20374;-79
2021/12/27 07:06:49;;;;;;;;;;;;;;;4.60;86.06;98682.28;5095512;28;19920;-78
2021/12/27 07:09:14;;;;;;;;;;;;;;;4.57;86.23;98695.22;5096113;28;19920;-80
2021/12/27 07:11:41;;;;;;;;;;;;;;;4.58;86.45;98694.97;5096258;28;20378;-80
2021/12/27 07:14:06;;;;;;;;;;;;;;;4.60;86.12;98684.94;5096134;28;19925;-79
2021/12/27 07:16:31;;;;;;;;;;;;;;;4.56;86.05;98681.16;5096144;28;19915;-82
2021/12/27 07:18:57;;;;;;;;;;;;;;;4.51;86.39;98675.81;5094108;28;20014;-81
2021/12/27 07:21:22;;;;;;;;;;;;;;;4.45;86.36;98685.50;5095629;28;19919;-80
2021/12/27 07:23:47;;;;;;;;;;;;;;;4.43;86.55;98681.50;5095834;28;19926;-83
2021/12/27 07:26:13;;;;;;;;;;;;;;;4.38;86.50;98682.25;5095663;28;19915;-73
2021/12/27 07:28:38;;;;;;;;;;;;;;;4.31;87.64;98679.00;5114083;28;19962;-76
2021/12/27 07:31:04;;;;;;;;;;;;;;;4.33;87.23;98684.81;5114351;28;19950;-77
2021/12/27 07:33:29;;;;;;;;;;;;;;;4.32;87.41;98686.69;5094001;28;19916;-77
2021/12/27 07:35:55;;;;;;;;;;;;;;;4.34;87.44;98694.38;5096490;28;20393;-92
2021/12/27 07:38:20;;;;;;;;;;;;;;;4.36;87.05;98689.63;5100150;28;19920;-90
2021/12/27 07:40:46;;;;;;;;;;;;;;;4.38;87.28;98692.03;5097177;28;19926;-91
2021/12/27 07:43:11;;;;;;;;;;;;;;;4.41;86.70;98684.41;5095286;28;19951;-84
2021/12/27 07:45:36;;;;;;;;;;;;;;;4.40;86.51;98690.75;5097248;28;20325;-90
2021/12/27 07:48:06;;;;;;;;;;;;;;;4.36;86.60;98678.22;5120139;27;19924;-82
2021/12/27 07:50:32;;;;;;;;;;;;;;;4.33;86.41;98672.41;5095277;28;19926;-87
2021/12/27 07:52:57;;;;;;;;;;;;;;;4.30;86.46;98680.03;5096225;28;19920;-87
2021/12/27 07:55:27;;;;;;;;;;;;;;;4.29;87.25;98697.75;5099537;28;19920;-90
2021/12/27 07:57:53;;;;;;;;;;;;;;;4.31;87.87;98690.38;5099965;28;19973;-81
2021/12/27 08:00:18;;;;;;;;;;;;;;;4.34;87.66;98686.44;5095979;28;19959;-83
2021/12/27 08:02:43;;;;;;;;;;;;;;;4.39;88.46;98683.84;5095035;28;20334;-85
2021/12/27 08:05:09;;;;;;;;;;;;;;;4.46;88.54;98679.19;5095840;28;19969;-82
2021/12/27 08:07:34;;;;;;;;;;;;;;;4.54;88.29;98679.81;5094891;28;19981;-84
2021/12/27 08:10:00;;;;;;;;;;;;;;;4.60;88.26;98682.28;5094712;28;19920;-88
2021/12/27 08:12:25;;;;;;;;;;;;;;;4.68;88.22;98677.59;5096519;28;19919;-79
2021/12/27 08:14:50;;;;;;;;;;;;;;;4.77;88.05;98678.75;5094990;28;19923;-77
2021/12/27 08:17:15;;;;;;;;;;;;;;;4.80;87.95;98680.94;5093817;28;20395;-87
2021/12/27 08:19:41;;;;;;;;;;;;;;;4.88;88.13;98685.00;5095474;28;19920;-88
2021/12/27 08:22:06;;;;;;;;;;;;;;;4.95;87.58;98689.03;5096158;28;19916;-88
2021/12/27 08:24:31;;;;;;;;;;;;;;;5.04;87.45;98686.78;5095551;28;20010;-92
2021/12/27 08:26:57;;;;;;;;;;;;;;;5.10;87.27;98687.63;5094167;28;19927;-86
2021/12/27 08:29:22;;;;;;;;;;;;;;;5.19;87.38;98687.97;5095027;28;19923;-82
2021/12/27 08:31:47;;;;;;;;;;;;;;;5.25;86.94;98679.84;5094485;28;20463;-82
2021/12/27 08:34:13;;;;;;;;;;;;;;;5.31;86.69;98674.56;5094445;28;19919;-81
2021/12/27 08:36:38;;;;;;;;;;;;;;;5.36;86.48;98672.78;5094450;28;19915;-76
2021/12/27 08:39:04;;;;;;;;;;;;;;;5.42;86.12;98668.31;5094437;28;20390;-83
2021/12/27 08:41:29;;;;;;;;;;;;;;;5.46;86.54;98677.38;5097101;28;20401;-90
2021/12/27 08:44:00;;;;;;;;;;;;;;;5.53;86.22;98667.38;5080845;28;19923;-79
2021/12/27 08:46:25;;;;;;;;;;;;;;;5.55;85.76;98665.25;5094095;28;20425;-83
2021/12/27 08:48:51;;;;;;;;;;;;;;;5.57;85.82;98670.31;5093802;28;20000;-87
2021/12/27 08:51:17;;;;;;;;;;;;;;;5.60;85.87;98667.97;5094935;28;20378;-91
2021/12/27 08:53:43;;;;;;;;;;;;;;;5.63;85.85;98664.00;5094710;28;19920;-84
2021/12/27 08:56:08;;;;;;;;;;;;;;;5.66;85.87;98654.75;5094162;28;19984;-90
2021/12/27 08:58:33;;;;;;;;;;;;;;;5.66;85.83;98647.56;5094182;28;20306;-83
2021/12/27 09:00:59;;;;;;;;;;;;;;;5.70;86.09;98642.56;5093897;28;19915;-87
2021/12/27 09:03:24;;;;;;;;;;;;;;;5.72;85.86;98643.13;5094147;28;20413;-85
2021/12/27 09:05:49;;;;;;;;;;;;;;;5.77;85.80;98635.19;5093647;28;20344;-85
2021/12/27 09:08:15;;;;;;;;;;;;;;;5.82;85.62;98642.38;5094092;28;19927;-84
2021/12/27 09:10:40;;;;;;;;;;;;;;;5.86;85.33;98635.50;5077172;28;19920;-83
2021/12/27 09:13:05;;;;;;;;;;;;;;;5.90;85.71;98633.97;5093431;28;19919;-81
2021/12/27 09:15:32;;;;;;;;;;;;;;;5.93;85.63;98625.47;5093868;28;19964;-82
2021/12/27 09:17:57;;;;;;;;;;;;;;;5.97;86.05;98617.81;5093137;28;19976;-83
2021/12/27 09:20:25;;;;;;;;;;;;;;;5.99;85.99;98616.50;5093568;28;19959;-84
2021/12/27 09:22:51;;;;;;;;;;;;;;;6.02;86.10;98609.91;5093664;28;19920;-83
2021/12/27 09:25:16;;;;;;;;;;;;;;;6.04;86.08;98599.81;5093816;28;20402;-83
2021/12/27 09:27:42;;;;;;;;;;;;;;;6.07;86.86;98594.00;5088465;28;19931;-90
2021/12/27 09:30:07;;;;;;;;;;;;;;;6.11;88.71;98587.13;5097687;27;19923;-77
2021/12/27 09:32:33;;;;;;;;;;;;;;;6.19;89.60;98591.13;5089284;28;20006;-78
2021/12/27 09:34:58;;;;;;;;;;;;;;;6.29;91.85;98580.56;5117849;27;19998;-83
2021/12/27 09:37:24;;;;;;;;;;;;;;;6.40;92.60;98584.09;5074097;28;19920;-85
2021/12/27 09:39:53;;;;;;;;;;;;;;;6.51;91.61;98576.94;5087800;28;19966;-86
2021/12/27 09:42:19;;;;;;;;;;;;;;;6.62;92.20;98583.09;5091612;28;19989;-83
2021/12/27 09:44:45;;;;;;;;;;;;;;;6.77;93.60;98577.03;5090290;28;19955;-84
2021/12/27 09:47:10;;;;;;;;;;;;;;;6.94;94.94;98566.94;5090881;28;19974;-82
2021/12/27 09:49:36;;;;;;;;;;;;;;;7.12;96.24;98562.19;5090800;28;19919;-76
2021/12/27 09:52:01;;;;;;;;;;;;;;;7.43;100.00;98562.97;5090411;28;19920;-81
2021/12/27 09:54:27;;;;;;;;;;;;;;;7.76;100.00;98552.03;5091061;28;19923;-80
2021/12/27 09:56:53;;;;;;;;;;;;;;;8.09;100.00;98547.97;5093660;27;19920;-82
2021/12/27 09:59:18;;;;;;;;;;;;;;;8.47;100.00;98555.56;5101872;28;19924;-83
2021/12/27 10:01:43;;;;;;;;;;;;;;;8.83;100.00;98558.03;5097085;28;20320;-76
2021/12/27 10:04:09;;;;;;;;;;;;;;;9.12;99.62;98558.13;5097260;28;20434;-77
2021/12/27 10:06:34;;;;;;;;;;;;;;;9.42;98.44;98561.63;5114826;28;19984;-75
2021/12/27 10:09:01;;;;;;;;;;;;;;;9.74;97.00;98554.94;5115280;28;19916;-80
2021/12/27 10:11:30;;;;;;;;;;;;;;;9.99;95.56;98550.41;5096926;28;20018;-82
2021/12/27 10:13:57;;;;;;;;;;;;;;;10.26;94.37;98557.03;5097143;28;19924;-80
2021/12/27 10:16:23;;;;;;;;;;;;;;;10.51;94.41;98547.94;5090591;28;19920;-83
2021/12/27 10:18:52;;;;;;;;;;;;;;;10.74;92.59;98553.50;5096003;28;20378;-80
2021/12/27 10:21:17;;;;;;;;;;;;;;;10.99;90.60;98562.28;5097232;28;19923;-80
2021/12/27 10:23:43;;;;;;;;;;;;;;;11.18;89.57;98559.56;5096745;28;20317;-79
2021/12/27 10:26:09;;;;;;;;;;;;;;;11.34;88.55;98552.88;5096922;28;19912;-77
2021/12/27 10:28:34;;;;;;;;;;;;;;;11.49;87.29;98559.84;5096833;28;20007;-84
2021/12/27 10:31:01;;;;;;;;;;;;;;;11.63;86.42;98553.75;5091880;28;19923;-81
2021/12/27 10:33:26;;;;;;;;;;;;;;;11.75;85.59;98548.69;5096537;28;19927;-79
2021/12/27 10:35:51;;;;;;;;;;;;;;;11.88;84.12;98547.13;5084468;28;20346;-84
2021/12/27 10:38:23;;;;;;;;;;;;;;;12.01;83.75;98545.56;5096860;28;19916;-85
2021/12/27 10:40:53;;;;;;;;;;;;;;;12.13;82.67;98543.22;5096338;28;19919;-86
2021/12/27 10:43:19;;;;;;;;;;;;;;;12.25;82.20;98533.88;5096508;28;19924;-80
2021/12/27 10:45:47;;;;;;;;;;;;;;;12.35;81.34;98536.31;5130392;27;19926;-84
2021/12/27 10:48:21;;;;;;;;;;;;;;;12.46;81.05;98534.22;5096848;28;19960;-83
2021/12/27 10:50:47;;;;;;;;;;;;;;;12.57;80.22;98537.50;5090699;28;19924;-81
2021/12/27 10:53:14;;;;;;;;;;;;;;;12.64;79.82;98522.56;5126355;27;20387;-79
2021/12/27 10:55:46;;;;;;;;;;;;;;;12.75;79.70;98525.03;5094571;28;19959;-79
2021/12/27 10:58:25;;;;;;;;;;;;;;;12.84;78.63;98527.78;5096006;28;19919;-79
2021/12/27 11:00:50;;;;;;;;;;;;;;;12.93;77.71;98520.59;5094439;28;19926;-80
2021/12/27 11:03:23;;;;;;;;;;;;;;;13.01;77.91;98508.34;5096389;28;20447;-79
2021/12/27 11:05:48;;;;;;;;;;;;;;;13.10;77.39;98512.66;5096018;28;19919;-80
2021/12/27 11:08:14;;;;;;;;;;;;;;;13.18;77.14;98508.44;5096094;28;20546;-80
2021/12/27 11:10:39;;;;;;;;;;;;;;;13.24;76.64;98509.94;5096036;28;20318;-80
2021/12/27 11:13:05;;;;;;;;;;;;;;;13.31;76.42;98509.47;5130163;27;20007;-80
2021/12/27 11:15:31;;;;;;;;;;;;;;;13.36;76.10;98503.19;5096177;28;19916;-79
2021/12/27 11:17:57;;;;;;;;;;;;;;;13.40;75.92;98496.94;5096049;28;19916;-80
2021/12/27 11:20:23;;;;;;;;;;;;;;;13.44;75.59;98489.84;5096253;28;19915;-79
2021/12/27 11:22:50;;;;;;;;;;;;;;;13.51;75.53;98497.47;5095727;28;19920;-79
2021/12/27 11:25:32;;;;;;;;;;;;;;;13.55;75.37;98482.31;5095915;28;19999;-79
2021/12/27 11:27:58;;;;;;;;;;;;;;;13.60;74.80;98481.38;5095912;28;19916;-79
2021/12/27 11:30:25;;;;;;;;;;;;;;;13.64;74.26;98481.56;5096145;28;19916;-80
2021/12/27 11:33:12;;;;;;;;;;;;;;;13.69;74.52;98476.03;5095665;28;19922;-80
2021/12/27 11:35:40;;;;;;;;;;;;;;;13.73;74.19;98474.31;5095560;28;19920;-79
2021/12/27 11:38:06;;;;;;;;;;;;;;;13.76;73.85;98465.63;5095348;28;19919;-79
2021/12/27 11:40:45;;;;;;;;;;;;;;;13.81;73.29;98468.16;5095131;28;19972;-80
2021/12/27 11:43:10;;;;;;;;;;;;;;;13.84;72.81;98475.63;5095603;28;19981;-79
2021/12/27 11:45:52;;;;;;;;;;;;;;;13.89;72.34;98469.28;5095538;28;19923;-79
2021/12/27 11:48:20;;;;;;;;;;;;;;;13.92;72.06;98464.09;5095845;28;19923;-79
2021/12/27 11:51:05;;;;;;;;;;;;;;;13.98;71.72;98469.34;5095288;28;19916;-79
2021/12/27 11:53:35;;;;;;;;;;;;;;;14.01;71.72;98466.81;5095635;28;20334;-79
2021/12/27 11:56:03;;;;;;;;;;;;;;;14.05;71.53;98467.00;5094909;28;19916;-79
2021/12/27 11:58:32;;;;;;;;;;;;;;;14.07;71.22;98465.56;5095516;28;19955;-79
2021/12/27 12:00:57;;;;;;;;;;;;;;;14.10;70.79;98453.38;5095206;28;20114;-79
2021/12/27 12:03:39;;;;;;;;;;;;;;;14.13;70.20;98450.06;5095219;28;20045;-80
2021/12/27 12:06:06;;;;;;;;;;;;;;;14.16;69.74;98451.31;5094865;28;19963;-79
2021/12/27 12:08:37;;;;;;;;;;;;;;;14.18;69.16;98447.22;5095048;28;19920;-79
2021/12/27 12:11:04;;;;;;;;;;;;;;;14.22;69.05;98461.63;5094387;28;19962;-79
2021/12/27 12:13:43;;;;;;;;;;;;;;;14.23;68.54;98441.69;5094504;28;19923;-79
2021/12/27 12:16:14;;;;;;;;;;;;;;;14.28;68.64;98453.41;5094140;28;19930;-81
2021/12/27 12:18:41;;;;;;;;;;;;;;;14.29;68.06;98445.00;5094002;28;19916;-80
2021/12/27 12:21:26;;;;;;;;;;;;;;;14.31;67.60;98442.03;5094150;28;19938;-79
2021/12/27 12:24:01;;;;;;;;;;;;;;;14.33;68.02;98442.47;5094080;28;19916;-80
2021/12/27 12:26:28;;;;;;;;;;;;;;;14.34;68.08;98439.50;5094467;28;19919;-79
2021/12/27 12:29:03;;;;;;;;;;;;;;;14.36;67.83;98439.19;5093919;28;19920;-79
2021/12/27 12:31:33;;;;;;;;;;;;;;;14.35;68.12;98429.53;5094344;28;19924;-81
2021/12/27 12:34:15;;;;;;;;;;;;;;;14.35;67.64;98432.22;5093680;28;19930;-80
2021/12/27 12:36:45;;;;;;;;;;;;;;;14.34;67.74;98436.81;5094050;28;19916;-80
2021/12/27 12:39:10;;;;;;;;;;;;;;;14.34;67.60;98434.13;5093972;28;19916;-80
2021/12/27 12:41:35;;;;;;;;;;;;;;;14.32;67.94;98430.94;5093882;28;19915;-82
2021/12/27 12:44:01;;;;;;;;;;;;;;;14.31;67.68;98431.28;5093743;28;20455;-79
2021/12/27 12:46:38;;;;;;;;;;;;;;;14.30;67.33;98443.13;5093867;28;19916;-80
2021/12/27 12:49:06;;;;;;;;;;;;;;;14.29;66.81;98430.78;5093594;28;19980;-80
2021/12/27 12:51:33;;;;;;;;;;;;;;;14.29;66.83;98425.41;5093496;28;19915;-80
2021/12/27 12:53:58;;;;;;;;;;;;;;;14.28;66.72;98430.00;5093453;28;20314;-79